Tipton, Michigan
Current Conditions -  °F | °C
As of 3:53 AM on Sunday 23 Nov 2014 (Local Time) from KADG Reporting Station
Overcast Overcast  
Wind Chill: 39°   Ceiling: 2900
Heat Index: 45°   Visibility: 10mi
Dew Point: 41°   Wind: 13mph
Humidity: 86%   Direction: 230°SW
Pressure: 29.96"   Gusts: NA
Location:  42.02°N, 84.06°W
Report Text: KADG 230853Z AUTO 23011KT 10SM OVC029 07/05 A2996 RMK AO2 RAE53 SLP151 P0000 60000 T00720050 58003
Loading
Personal Weather Stations






























Interactive Weather Map New forecast layout! Learn more

10-Day Weather Forecast

Advertisements
Track Severe Weather on mobile